sensor_id;sensor_type;location;lat;lon;timestamp;temperature;humidity
68485;DHT22;55472;50.060;21.960;2023-02-26T00:01:21;1.40;91.40
68485;DHT22;55472;50.060;21.960;2023-02-26T00:03:50;1.40;91.20
68485;DHT22;55472;50.060;21.960;2023-02-26T00:06:18;1.40;91.30
68485;DHT22;55472;50.060;21.960;2023-02-26T00:08:45;1.40;91.70
68485;DHT22;55472;50.060;21.960;2023-02-26T00:11:11;1.40;91.90
68485;DHT22;55472;50.060;21.960;2023-02-26T00:13:40;1.40;92.30
68485;DHT22;55472;50.060;21.960;2023-02-26T00:16:23;1.40;92.00
68485;DHT22;55472;50.060;21.960;2023-02-26T00:18:51;1.40;92.20
68485;DHT22;55472;50.060;21.960;2023-02-26T00:21:25;1.40;92.50
68485;DHT22;55472;50.060;21.960;2023-02-26T00:23:53;1.40;92.40
68485;DHT22;55472;50.060;21.960;2023-02-26T00:26:20;1.40;92.50
68485;DHT22;55472;50.060;21.960;2023-02-26T00:28:47;1.40;92.50
68485;DHT22;55472;50.060;21.960;2023-02-26T00:31:16;1.40;92.40
68485;DHT22;55472;50.060;21.960;2023-02-26T00:33:44;1.30;92.50
68485;DHT22;55472;50.060;21.960;2023-02-26T00:42:08;1.30;92.70
68485;DHT22;55472;50.060;21.960;2023-02-26T00:44:35;1.30;92.90
68485;DHT22;55472;50.060;21.960;2023-02-26T00:50:20;1.30;92.90
68485;DHT22;55472;50.060;21.960;2023-02-26T00:53:12;1.30;92.90
68485;DHT22;55472;50.060;21.960;2023-02-26T00:55:45;1.30;92.90
68485;DHT22;55472;50.060;21.960;2023-02-26T00:58:11;1.30;92.70
68485;DHT22;55472;50.060;21.960;2023-02-26T01:00:38;1.30;92.70
68485;DHT22;55472;50.060;21.960;2023-02-26T01:03:04;1.30;92.40
68485;DHT22;55472;50.060;21.960;2023-02-26T01:05:31;1.30;92.50
68485;DHT22;55472;50.060;21.960;2023-02-26T01:08:19;1.30;92.70
68485;DHT22;55472;50.060;21.960;2023-02-26T01:10:49;1.30;92.70
68485;DHT22;55472;50.060;21.960;2023-02-26T01:13:16;1.30;92.80
68485;DHT22;55472;50.060;21.960;2023-02-26T01:15:46;1.30;93.00
68485;DHT22;55472;50.060;21.960;2023-02-26T01:18:37;1.20;93.20
68485;DHT22;55472;50.060;21.960;2023-02-26T01:21:22;1.20;93.20
68485;DHT22;55472;50.060;21.960;2023-02-26T01:23:53;1.20;93.20
68485;DHT22;55472;50.060;21.960;2023-02-26T01:26:27;1.20;93.40
68485;DHT22;55472;50.060;21.960;2023-02-26T01:28:54;1.20;93.40
68485;DHT22;55472;50.060;21.960;2023-02-26T01:34:21;1.20;92.90
68485;DHT22;55472;50.060;21.960;2023-02-26T01:42:49;1.20;93.20
68485;DHT22;55472;50.060;21.960;2023-02-26T01:45:20;1.10;93.30
68485;DHT22;55472;50.060;21.960;2023-02-26T01:48:10;1.10;93.40
68485;DHT22;55472;50.060;21.960;2023-02-26T01:50:43;1.10;93.70
68485;DHT22;55472;50.060;21.960;2023-02-26T01:56:02;1.10;94.00
68485;DHT22;55472;50.060;21.960;2023-02-26T01:58:33;1.10;94.10
68485;DHT22;55472;50.060;21.960;2023-02-26T02:01:01;1.10;94.00
68485;DHT22;55472;50.060;21.960;2023-02-26T02:03:30;1.10;94.00
68485;DHT22;55472;50.060;21.960;2023-02-26T02:06:07;1.10;93.90
68485;DHT22;55472;50.060;21.960;2023-02-26T02:08:37;1.10;93.70
68485;DHT22;55472;50.060;21.960;2023-02-26T02:11:06;1.10;93.60
68485;DHT22;55472;50.060;21.960;2023-02-26T02:13:54;1.10;93.60
68485;DHT22;55472;50.060;21.960;2023-02-26T02:17:01;1.00;93.60
68485;DHT22;55472;50.060;21.960;2023-02-26T02:19:46;1.00;93.80
68485;DHT22;55472;50.060;21.960;2023-02-26T02:34:03;1.00;93.80
68485;DHT22;55472;50.060;21.960;2023-02-26T02:36:43;1.00;93.40
68485;DHT22;55472;50.060;21.960;2023-02-26T02:44:51;1.00;93.40
68485;DHT22;55472;50.060;21.960;2023-02-26T02:47:22;1.00;93.40
68485;DHT22;55472;50.060;21.960;2023-02-26T02:50:12;1.00;93.50
68485;DHT22;55472;50.060;21.960;2023-02-26T02:52:51;0.90;93.40
68485;DHT22;55472;50.060;21.960;2023-02-26T02:55:33;0.90;93.20
68485;DHT22;55472;50.060;21.960;2023-02-26T02:58:07;0.90;93.00
68485;DHT22;55472;50.060;21.960;2023-02-26T03:00:50;0.90;92.80
68485;DHT22;55472;50.060;21.960;2023-02-26T03:03:54;0.90;92.60
68485;DHT22;55472;50.060;21.960;2023-02-26T03:06:23;0.80;92.50
68485;DHT22;55472;50.060;21.960;2023-02-26T03:08:50;0.80;92.40
68485;DHT22;55472;50.060;21.960;2023-02-26T03:11:17;0.80;92.50
68485;DHT22;55472;50.060;21.960;2023-02-26T03:13:45;0.80;92.50
68485;DHT22;55472;50.060;21.960;2023-02-26T03:24:39;0.80;92.50
68485;DHT22;55472;50.060;21.960;2023-02-26T03:32:52;0.80;91.50
68485;DHT22;55472;50.060;21.960;2023-02-26T03:35:30;0.80;91.20
68485;DHT22;55472;50.060;21.960;2023-02-26T03:38:01;0.80;91.20
68485;DHT22;55472;50.060;21.960;2023-02-26T03:40:45;0.80;91.00
68485;DHT22;55472;50.060;21.960;2023-02-26T03:43:29;0.70;90.70
68485;DHT22;55472;50.060;21.960;2023-02-26T03:46:18;0.70;90.40
68485;DHT22;55472;50.060;21.960;2023-02-26T03:48:49;0.80;90.30
68485;DHT22;55472;50.060;21.960;2023-02-26T03:51:17;0.80;90.10
68485;DHT22;55472;50.060;21.960;2023-02-26T03:53:57;0.80;89.60
68485;DHT22;55472;50.060;21.960;2023-02-26T03:56:38;0.70;89.70
68485;DHT22;55472;50.060;21.960;2023-02-26T03:59:07;0.70;89.50
68485;DHT22;55472;50.060;21.960;2023-02-26T04:02:03;0.70;89.40
68485;DHT22;55472;50.060;21.960;2023-02-26T04:07:18;0.70;89.40
68485;DHT22;55472;50.060;21.960;2023-02-26T04:09:46;0.70;89.10
68485;DHT22;55472;50.060;21.960;2023-02-26T04:12:19;0.70;89.10
68485;DHT22;55472;50.060;21.960;2023-02-26T04:14:53;0.70;89.20
68485;DHT22;55472;50.060;21.960;2023-02-26T04:17:20;0.60;89.10
68485;DHT22;55472;50.060;21.960;2023-02-26T04:19:46;0.70;89.30
68485;DHT22;55472;50.060;21.960;2023-02-26T04:22:12;0.70;89.30
68485;DHT22;55472;50.060;21.960;2023-02-26T04:24:38;0.70;89.30
68485;DHT22;55472;50.060;21.960;2023-02-26T04:27:05;0.70;89.20
68485;DHT22;55472;50.060;21.960;2023-02-26T04:29:31;0.70;89.10
68485;DHT22;55472;50.060;21.960;2023-02-26T04:31:57;0.60;89.20
68485;DHT22;55472;50.060;21.960;2023-02-26T04:34:24;0.60;89.40
68485;DHT22;55472;50.060;21.960;2023-02-26T04:36:50;0.60;89.30
68485;DHT22;55472;50.060;21.960;2023-02-26T04:39:17;0.60;89.40
68485;DHT22;55472;50.060;21.960;2023-02-26T04:41:43;0.60;89.50
68485;DHT22;55472;50.060;21.960;2023-02-26T04:44:10;0.60;89.40
68485;DHT22;55472;50.060;21.960;2023-02-26T04:46:36;0.60;89.40
68485;DHT22;55472;50.060;21.960;2023-02-26T04:49:02;0.60;89.40
68485;DHT22;55472;50.060;21.960;2023-02-26T04:51:29;0.60;89.50
68485;DHT22;55472;50.060;21.960;2023-02-26T04:53:56;0.60;89.90
68485;DHT22;55472;50.060;21.960;2023-02-26T04:56:22;0.60;89.80
68485;DHT22;55472;50.060;21.960;2023-02-26T04:58:48;0.60;89.60
68485;DHT22;55472;50.060;21.960;2023-02-26T05:01:14;0.60;89.50
68485;DHT22;55472;50.060;21.960;2023-02-26T05:03:41;0.60;89.50
68485;DHT22;55472;50.060;21.960;2023-02-26T05:06:07;0.60;89.50
68485;DHT22;55472;50.060;21.960;2023-02-26T05:08:33;0.60;89.70
68485;DHT22;55472;50.060;21.960;2023-02-26T05:11:00;0.60;89.80
68485;DHT22;55472;50.060;21.960;2023-02-26T05:13:26;0.60;89.80
68485;DHT22;55472;50.060;21.960;2023-02-26T05:15:53;0.60;89.70
68485;DHT22;55472;50.060;21.960;2023-02-26T05:18:19;0.60;89.80
68485;DHT22;55472;50.060;21.960;2023-02-26T05:20:51;0.60;89.80
68485;DHT22;55472;50.060;21.960;2023-02-26T05:23:18;0.60;89.70
68485;DHT22;55472;50.060;21.960;2023-02-26T05:25:45;0.60;89.50
68485;DHT22;55472;50.060;21.960;2023-02-26T05:28:11;0.60;89.60
68485;DHT22;55472;50.060;21.960;2023-02-26T05:30:39;0.60;89.20
68485;DHT22;55472;50.060;21.960;2023-02-26T05:33:05;0.60;89.40
68485;DHT22;55472;50.060;21.960;2023-02-26T05:35:31;0.60;89.40
68485;DHT22;55472;50.060;21.960;2023-02-26T05:37:57;0.60;89.30
68485;DHT22;55472;50.060;21.960;2023-02-26T05:40:25;0.60;89.30
68485;DHT22;55472;50.060;21.960;2023-02-26T05:42:51;0.60;89.30
68485;DHT22;55472;50.060;21.960;2023-02-26T05:45:17;0.50;89.60
68485;DHT22;55472;50.060;21.960;2023-02-26T05:47:43;0.60;89.60
68485;DHT22;55472;50.060;21.960;2023-02-26T05:50:10;0.50;89.60
68485;DHT22;55472;50.060;21.960;2023-02-26T05:52:37;0.50;89.60
68485;DHT22;55472;50.060;21.960;2023-02-26T05:55:03;0.50;89.90
68485;DHT22;55472;50.060;21.960;2023-02-26T05:57:30;0.60;89.80
68485;DHT22;55472;50.060;21.960;2023-02-26T05:59:56;0.60;89.80
68485;DHT22;55472;50.060;21.960;2023-02-26T06:02:23;0.60;90.00
68485;DHT22;55472;50.060;21.960;2023-02-26T06:04:49;0.60;89.90
68485;DHT22;55472;50.060;21.960;2023-02-26T06:07:16;0.60;89.90
68485;DHT22;55472;50.060;21.960;2023-02-26T06:09:42;0.60;90.30
68485;DHT22;55472;50.060;21.960;2023-02-26T06:12:08;0.70;90.20
68485;DHT22;55472;50.060;21.960;2023-02-26T06:14:35;0.70;90.10
68485;DHT22;55472;50.060;21.960;2023-02-26T06:17:03;0.70;89.50
68485;DHT22;55472;50.060;21.960;2023-02-26T06:19:29;0.70;89.60
68485;DHT22;55472;50.060;21.960;2023-02-26T06:21:55;0.70;89.60
68485;DHT22;55472;50.060;21.960;2023-02-26T06:24:22;0.70;89.30
68485;DHT22;55472;50.060;21.960;2023-02-26T06:26:48;0.70;89.10
68485;DHT22;55472;50.060;21.960;2023-02-26T06:29:14;0.70;88.90
68485;DHT22;55472;50.060;21.960;2023-02-26T06:31:43;0.70;88.30
68485;DHT22;55472;50.060;21.960;2023-02-26T06:34:10;0.80;87.90
68485;DHT22;55472;50.060;21.960;2023-02-26T06:36:36;0.70;87.70
68485;DHT22;55472;50.060;21.960;2023-02-26T06:39:03;0.70;87.60
68485;DHT22;55472;50.060;21.960;2023-02-26T06:41:29;0.70;87.00
68485;DHT22;55472;50.060;21.960;2023-02-26T06:43:55;0.70;87.10
68485;DHT22;55472;50.060;21.960;2023-02-26T06:46:21;0.70;87.30
68485;DHT22;55472;50.060;21.960;2023-02-26T06:48:48;0.70;87.70
68485;DHT22;55472;50.060;21.960;2023-02-26T06:51:14;0.80;87.70
68485;DHT22;55472;50.060;21.960;2023-02-26T06:53:40;0.80;87.70
68485;DHT22;55472;50.060;21.960;2023-02-26T06:56:06;0.80;87.70
68485;DHT22;55472;50.060;21.960;2023-02-26T06:58:33;0.80;87.50
68485;DHT22;55472;50.060;21.960;2023-02-26T07:00:59;0.90;86.90
68485;DHT22;55472;50.060;21.960;2023-02-26T07:03:26;0.90;86.30
68485;DHT22;55472;50.060;21.960;2023-02-26T07:05:52;0.90;86.20
68485;DHT22;55472;50.060;21.960;2023-02-26T07:08:18;0.80;85.90
68485;DHT22;55472;50.060;21.960;2023-02-26T07:10:44;0.90;85.60
68485;DHT22;55472;50.060;21.960;2023-02-26T07:13:15;0.80;85.10
68485;DHT22;55472;50.060;21.960;2023-02-26T07:15:41;0.90;84.90
68485;DHT22;55472;50.060;21.960;2023-02-26T07:18:07;0.90;84.80
68485;DHT22;55472;50.060;21.960;2023-02-26T07:20:34;0.90;84.90
68485;DHT22;55472;50.060;21.960;2023-02-26T07:23:00;0.90;84.70
68485;DHT22;55472;50.060;21.960;2023-02-26T07:25:27;0.90;84.80
68485;DHT22;55472;50.060;21.960;2023-02-26T07:27:53;0.90;84.60
68485;DHT22;55472;50.060;21.960;2023-02-26T07:30:21;0.90;85.10
68485;DHT22;55472;50.060;21.960;2023-02-26T07:32:47;0.90;85.10
68485;DHT22;55472;50.060;21.960;2023-02-26T07:35:13;0.90;85.60
68485;DHT22;55472;50.060;21.960;2023-02-26T07:37:39;0.90;85.40
68485;DHT22;55472;50.060;21.960;2023-02-26T07:40:06;0.90;85.50
68485;DHT22;55472;50.060;21.960;2023-02-26T07:42:33;1.00;85.40
68485;DHT22;55472;50.060;21.960;2023-02-26T07:44:59;1.00;85.50
68485;DHT22;55472;50.060;21.960;2023-02-26T07:47:25;1.00;85.30
68485;DHT22;55472;50.060;21.960;2023-02-26T07:49:51;1.00;85.70
68485;DHT22;55472;50.060;21.960;2023-02-26T07:52:18;1.00;85.90
68485;DHT22;55472;50.060;21.960;2023-02-26T07:54:44;1.00;85.50
68485;DHT22;55472;50.060;21.960;2023-02-26T07:57:10;1.00;85.60
68485;DHT22;55472;50.060;21.960;2023-02-26T07:59:36;1.00;85.70
68485;DHT22;55472;50.060;21.960;2023-02-26T08:02:03;1.00;85.40
68485;DHT22;55472;50.060;21.960;2023-02-26T08:04:29;1.00;85.30
68485;DHT22;55472;50.060;21.960;2023-02-26T08:06:59;1.10;84.60
68485;DHT22;55472;50.060;21.960;2023-02-26T08:09:26;1.10;84.60
68485;DHT22;55472;50.060;21.960;2023-02-26T08:11:53;1.10;84.30
68485;DHT22;55472;50.060;21.960;2023-02-26T08:14:19;1.10;83.80
68485;DHT22;55472;50.060;21.960;2023-02-26T08:16:45;1.20;83.10
68485;DHT22;55472;50.060;21.960;2023-02-26T08:19:11;1.20;83.00
68485;DHT22;55472;50.060;21.960;2023-02-26T08:21:37;1.20;83.00
68485;DHT22;55472;50.060;21.960;2023-02-26T08:24:04;1.20;82.30
68485;DHT22;55472;50.060;21.960;2023-02-26T08:26:30;1.20;81.90
68485;DHT22;55472;50.060;21.960;2023-02-26T08:29:00;1.20;81.70
68485;DHT22;55472;50.060;21.960;2023-02-26T08:31:26;1.20;81.80
68485;DHT22;55472;50.060;21.960;2023-02-26T08:33:53;1.30;81.90
68485;DHT22;55472;50.060;21.960;2023-02-26T08:36:19;1.30;81.30
68485;DHT22;55472;50.060;21.960;2023-02-26T08:38:47;1.30;81.30
68485;DHT22;55472;50.060;21.960;2023-02-26T08:41:13;1.30;81.30
68485;DHT22;55472;50.060;21.960;2023-02-26T08:43:40;1.30;81.20
68485;DHT22;55472;50.060;21.960;2023-02-26T08:46:06;1.40;81.40
68485;DHT22;55472;50.060;21.960;2023-02-26T08:48:32;1.40;80.90
68485;DHT22;55472;50.060;21.960;2023-02-26T08:50:59;1.40;81.20
68485;DHT22;55472;50.060;21.960;2023-02-26T08:53:25;1.30;80.80
68485;DHT22;55472;50.060;21.960;2023-02-26T08:55:52;1.40;80.20
68485;DHT22;55472;50.060;21.960;2023-02-26T08:58:19;1.40;80.80
68485;DHT22;55472;50.060;21.960;2023-02-26T09:00:46;1.40;81.10
68485;DHT22;55472;50.060;21.960;2023-02-26T09:03:12;1.30;80.90
68485;DHT22;55472;50.060;21.960;2023-02-26T09:05:39;1.30;81.00
68485;DHT22;55472;50.060;21.960;2023-02-26T09:08:06;1.30;81.40
68485;DHT22;55472;50.060;21.960;2023-02-26T09:10:33;1.30;81.30
68485;DHT22;55472;50.060;21.960;2023-02-26T09:12:59;1.40;81.30
68485;DHT22;55472;50.060;21.960;2023-02-26T09:15:26;1.40;81.50
68485;DHT22;55472;50.060;21.960;2023-02-26T09:17:52;1.40;80.80
68485;DHT22;55472;50.060;21.960;2023-02-26T09:20:18;1.30;80.50
68485;DHT22;55472;50.060;21.960;2023-02-26T09:22:44;1.30;80.90
68485;DHT22;55472;50.060;21.960;2023-02-26T09:25:11;1.40;81.00
68485;DHT22;55472;50.060;21.960;2023-02-26T09:27:37;1.40;80.40
68485;DHT22;55472;50.060;21.960;2023-02-26T09:30:04;1.40;81.10
68485;DHT22;55472;50.060;21.960;2023-02-26T09:32:31;1.40;80.80
68485;DHT22;55472;50.060;21.960;2023-02-26T09:34:58;1.40;81.00
68485;DHT22;55472;50.060;21.960;2023-02-26T09:37:24;1.50;80.90
68485;DHT22;55472;50.060;21.960;2023-02-26T09:39:50;1.50;81.10
68485;DHT22;55472;50.060;21.960;2023-02-26T09:42:42;1.60;80.90
68485;DHT22;55472;50.060;21.960;2023-02-26T09:45:36;1.70;81.10
68485;DHT22;55472;50.060;21.960;2023-02-26T09:48:04;1.90;81.80
68485;DHT22;55472;50.060;21.960;2023-02-26T09:50:46;2.10;81.90
68485;DHT22;55472;50.060;21.960;2023-02-26T09:53:33;2.40;81.70
68485;DHT22;55472;50.060;21.960;2023-02-26T09:56:07;2.60;80.50
68485;DHT22;55472;50.060;21.960;2023-02-26T09:58:45;3.30;79.90
68485;DHT22;55472;50.060;21.960;2023-02-26T10:09:34;3.90;75.50
68485;DHT22;55472;50.060;21.960;2023-02-26T10:12:16;4.10;75.60
68485;DHT22;55472;50.060;21.960;2023-02-26T10:21:02;4.30;72.80
68485;DHT22;55472;50.060;21.960;2023-02-26T10:26:19;4.10;72.60
68485;DHT22;55472;50.060;21.960;2023-02-26T10:32:03;3.90;73.70
68485;DHT22;55472;50.060;21.960;2023-02-26T10:43:22;3.60;74.60
68485;DHT22;55472;50.060;21.960;2023-02-26T10:49:13;3.40;76.00
68485;DHT22;55472;50.060;21.960;2023-02-26T10:51:39;3.30;75.50
68485;DHT22;55472;50.060;21.960;2023-02-26T10:54:32;3.20;75.90
68485;DHT22;55472;50.060;21.960;2023-02-26T10:57:01;3.10;75.70
68485;DHT22;55472;50.060;21.960;2023-02-26T10:59:28;3.10;76.20
68485;DHT22;55472;50.060;21.960;2023-02-26T11:01:55;3.10;75.90
68485;DHT22;55472;50.060;21.960;2023-02-26T11:04:24;3.00;76.10
68485;DHT22;55472;50.060;21.960;2023-02-26T11:06:57;2.90;76.10
68485;DHT22;55472;50.060;21.960;2023-02-26T11:09:34;2.80;76.30
68485;DHT22;55472;50.060;21.960;2023-02-26T11:12:12;2.70;77.00
68485;DHT22;55472;50.060;21.960;2023-02-26T11:14:47;2.70;77.70
68485;DHT22;55472;50.060;21.960;2023-02-26T11:17:22;2.70;77.60
68485;DHT22;55472;50.060;21.960;2023-02-26T11:20:02;2.60;78.10
68485;DHT22;55472;50.060;21.960;2023-02-26T11:22:34;2.60;78.50
68485;DHT22;55472;50.060;21.960;2023-02-26T11:25:04;2.60;79.20
68485;DHT22;55472;50.060;21.960;2023-02-26T11:27:34;2.60;79.10
68485;DHT22;55472;50.060;21.960;2023-02-26T11:30:26;2.60;79.10
68485;DHT22;55472;50.060;21.960;2023-02-26T11:32:55;2.60;78.40
68485;DHT22;55472;50.060;21.960;2023-02-26T11:35:25;2.60;78.70
68485;DHT22;55472;50.060;21.960;2023-02-26T11:37:59;2.60;78.80
68485;DHT22;55472;50.060;21.960;2023-02-26T11:40:39;2.70;78.40
68485;DHT22;55472;50.060;21.960;2023-02-26T11:43:15;2.60;78.40
68485;DHT22;55472;50.060;21.960;2023-02-26T11:45:46;2.60;78.00
68485;DHT22;55472;50.060;21.960;2023-02-26T11:48:21;2.60;78.20
68485;DHT22;55472;50.060;21.960;2023-02-26T11:50:52;2.60;78.10
68485;DHT22;55472;50.060;21.960;2023-02-26T11:53:33;2.70;78.30
68485;DHT22;55472;50.060;21.960;2023-02-26T11:56:10;2.70;78.80
68485;DHT22;55472;50.060;21.960;2023-02-26T11:58:40;2.70;78.30
68485;DHT22;55472;50.060;21.960;2023-02-26T12:01:10;2.80;78.60
68485;DHT22;55472;50.060;21.960;2023-02-26T12:03:39;2.90;78.30
68485;DHT22;55472;50.060;21.960;2023-02-26T12:06:18;3.00;77.90
68485;DHT22;55472;50.060;21.960;2023-02-26T12:08:47;3.20;78.10
68485;DHT22;55472;50.060;21.960;2023-02-26T12:14:29;3.50;76.60
68485;DHT22;55472;50.060;21.960;2023-02-26T12:20:20;3.70;74.70
68485;DHT22;55472;50.060;21.960;2023-02-26T12:38:34;3.40;79.90
68485;DHT22;55472;50.060;21.960;2023-02-26T12:41:01;3.30;80.10
68485;DHT22;55472;50.060;21.960;2023-02-26T12:43:53;3.20;81.60
68485;DHT22;55472;50.060;21.960;2023-02-26T12:49:38;3.70;82.20
68485;DHT22;55472;50.060;21.960;2023-02-26T12:52:21;3.80;81.10
68485;DHT22;55472;50.060;21.960;2023-02-26T12:55:16;4.00;79.80
68485;DHT22;55472;50.060;21.960;2023-02-26T13:01:24;4.00;77.00
68485;DHT22;55472;50.060;21.960;2023-02-26T13:13:33;3.60;76.40
68485;DHT22;55472;50.060;21.960;2023-02-26T13:21:58;3.50;76.40
68485;DHT22;55472;50.060;21.960;2023-02-26T13:24:49;3.40;75.50
68485;DHT22;55472;50.060;21.960;2023-02-26T13:27:17;3.40;76.30
68485;DHT22;55472;50.060;21.960;2023-02-26T13:29:47;3.40;75.90
68485;DHT22;55472;50.060;21.960;2023-02-26T13:32:23;3.30;75.70
68485;DHT22;55472;50.060;21.960;2023-02-26T13:35:03;3.30;76.70
68485;DHT22;55472;50.060;21.960;2023-02-26T13:37:38;3.30;77.00
68485;DHT22;55472;50.060;21.960;2023-02-26T13:42:59;3.20;76.20
68485;DHT22;55472;50.060;21.960;2023-02-26T13:49:13;3.10;76.60
68485;DHT22;55472;50.060;21.960;2023-02-26T13:51:36;3.00;77.20
68485;DHT22;55472;50.060;21.960;2023-02-26T13:59:31;2.70;78.30
68485;DHT22;55472;50.060;21.960;2023-02-26T14:02:33;2.70;78.40
68485;DHT22;55472;50.060;21.960;2023-02-26T14:05:29;2.60;78.90
68485;DHT22;55472;50.060;21.960;2023-02-26T14:08:24;2.50;79.10
68485;DHT22;55472;50.060;21.960;2023-02-26T14:11:02;2.50;80.00
68485;DHT22;55472;50.060;21.960;2023-02-26T14:13:34;2.40;80.80
68485;DHT22;55472;50.060;21.960;2023-02-26T14:18:50;2.10;82.40
68485;DHT22;55472;50.060;21.960;2023-02-26T14:24:05;1.80;84.80
68485;DHT22;55472;50.060;21.960;2023-02-26T14:26:38;1.70;85.50
68485;DHT22;55472;50.060;21.960;2023-02-26T14:29:20;1.60;85.80
68485;DHT22;55472;50.060;21.960;2023-02-26T14:34:30;1.30;86.80
68485;DHT22;55472;50.060;21.960;2023-02-26T14:37:00;1.20;87.30
68485;DHT22;55472;50.060;21.960;2023-02-26T14:39:58;1.10;88.10
68485;DHT22;55472;50.060;21.960;2023-02-26T14:42:34;1.00;88.50
68485;DHT22;55472;50.060;21.960;2023-02-26T14:45:16;1.00;87.60
68485;DHT22;55472;50.060;21.960;2023-02-26T14:48:01;1.00;88.00
68485;DHT22;55472;50.060;21.960;2023-02-26T14:54:18;0.90;87.50
68485;DHT22;55472;50.060;21.960;2023-02-26T14:59:45;0.80;88.80
68485;DHT22;55472;50.060;21.960;2023-02-26T15:02:36;0.80;89.00
68485;DHT22;55472;50.060;21.960;2023-02-26T15:17:43;0.70;89.60
68485;DHT22;55472;50.060;21.960;2023-02-26T15:20:39;0.70;89.30
68485;DHT22;55472;50.060;21.960;2023-02-26T15:26:22;0.60;88.70
68485;DHT22;55472;50.060;21.960;2023-02-26T15:28:51;0.60;89.00
68485;DHT22;55472;50.060;21.960;2023-02-26T15:31:20;0.60;88.40
68485;DHT22;55472;50.060;21.960;2023-02-26T15:33:55;0.50;88.20
68485;DHT22;55472;50.060;21.960;2023-02-26T15:36:22;0.50;89.10
68485;DHT22;55472;50.060;21.960;2023-02-26T15:38:58;0.50;89.50
68485;DHT22;55472;50.060;21.960;2023-02-26T15:41:27;0.50;88.90
68485;DHT22;55472;50.060;21.960;2023-02-26T15:43:59;0.50;88.60
68485;DHT22;55472;50.060;21.960;2023-02-26T15:46:35;0.50;88.50
68485;DHT22;55472;50.060;21.960;2023-02-26T15:49:23;0.40;88.80
68485;DHT22;55472;50.060;21.960;2023-02-26T15:51:54;0.40;88.70
68485;DHT22;55472;50.060;21.960;2023-02-26T15:54:23;0.40;88.40
68485;DHT22;55472;50.060;21.960;2023-02-26T15:56:52;0.40;88.50
68485;DHT22;55472;50.060;21.960;2023-02-26T15:59:26;0.40;88.90
68485;DHT22;55472;50.060;21.960;2023-02-26T16:01:54;0.40;88.50
68485;DHT22;55472;50.060;21.960;2023-02-26T16:04:22;0.40;88.50
68485;DHT22;55472;50.060;21.960;2023-02-26T16:06:52;0.40;88.50
68485;DHT22;55472;50.060;21.960;2023-02-26T16:09:29;0.30;88.20
68485;DHT22;55472;50.060;21.960;2023-02-26T16:12:52;0.30;88.10
68485;DHT22;55472;50.060;21.960;2023-02-26T16:15:04;0.30;88.40
68485;DHT22;55472;50.060;21.960;2023-02-26T16:17:39;0.30;88.40
68485;DHT22;55472;50.060;21.960;2023-02-26T16:20:19;0.30;88.60
68485;DHT22;55472;50.060;21.960;2023-02-26T16:22:49;0.30;88.50
68485;DHT22;55472;50.060;21.960;2023-02-26T16:28:42;0.30;88.10
68485;DHT22;55472;50.060;21.960;2023-02-26T16:31:20;0.30;87.80
68485;DHT22;55472;50.060;21.960;2023-02-26T16:33:59;0.20;87.30
68485;DHT22;55472;50.060;21.960;2023-02-26T16:36:45;0.20;87.00
68485;DHT22;55472;50.060;21.960;2023-02-26T16:39:23;0.20;87.10
68485;DHT22;55472;50.060;21.960;2023-02-26T16:42:02;0.20;87.30
68485;DHT22;55472;50.060;21.960;2023-02-26T16:44:39;0.10;86.90
68485;DHT22;55472;50.060;21.960;2023-02-26T16:47:11;0.10;87.20
68485;DHT22;55472;50.060;21.960;2023-02-26T16:49:39;0.10;87.20
68485;DHT22;55472;50.060;21.960;2023-02-26T16:52:14;0.10;87.20
68485;DHT22;55472;50.060;21.960;2023-02-26T16:55:01;0.10;87.00
68485;DHT22;55472;50.060;21.960;2023-02-26T16:57:37;0.10;86.80
68485;DHT22;55472;50.060;21.960;2023-02-26T17:00:11;0.00;86.40
68485;DHT22;55472;50.060;21.960;2023-02-26T17:03:20;0.00;86.50
68485;DHT22;55472;50.060;21.960;2023-02-26T17:05:58;0.00;86.40
68485;DHT22;55472;50.060;21.960;2023-02-26T17:08:48;0.00;86.60
68485;DHT22;55472;50.060;21.960;2023-02-26T17:11:38;0.00;86.40
68485;DHT22;55472;50.060;21.960;2023-02-26T17:14:22;0.00;86.00
68485;DHT22;55472;50.060;21.960;2023-02-26T17:16:51;-0.10;86.60
68485;DHT22;55472;50.060;21.960;2023-02-26T17:19:18;0.00;86.60
68485;DHT22;55472;50.060;21.960;2023-02-26T17:21:48;-0.10;86.30
68485;DHT22;55472;50.060;21.960;2023-02-26T17:24:20;-0.10;86.50
68485;DHT22;55472;50.060;21.960;2023-02-26T17:26:51;-0.10;86.30
68485;DHT22;55472;50.060;21.960;2023-02-26T17:29:38;-0.10;86.30
68485;DHT22;55472;50.060;21.960;2023-02-26T17:32:19;-0.10;86.60
68485;DHT22;55472;50.060;21.960;2023-02-26T17:34:48;-0.10;86.60
68485;DHT22;55472;50.060;21.960;2023-02-26T17:37:15;-0.10;86.60
68485;DHT22;55472;50.060;21.960;2023-02-26T17:39:42;-0.10;86.40
68485;DHT22;55472;50.060;21.960;2023-02-26T17:42:19;-0.10;86.40
68485;DHT22;55472;50.060;21.960;2023-02-26T17:44:48;-0.10;86.60
68485;DHT22;55472;50.060;21.960;2023-02-26T17:47:17;-0.10;86.20
68485;DHT22;55472;50.060;21.960;2023-02-26T17:49:45;-0.10;86.20
68485;DHT22;55472;50.060;21.960;2023-02-26T17:52:11;-0.10;86.30
68485;DHT22;55472;50.060;21.960;2023-02-26T17:54:42;-0.10;86.60
68485;DHT22;55472;50.060;21.960;2023-02-26T17:57:17;-0.10;87.10
68485;DHT22;55472;50.060;21.960;2023-02-26T17:59:45;-0.10;87.00
68485;DHT22;55472;50.060;21.960;2023-02-26T18:02:22;-0.10;87.00
68485;DHT22;55472;50.060;21.960;2023-02-26T18:04:53;-0.10;87.00
68485;DHT22;55472;50.060;21.960;2023-02-26T18:07:20;-0.10;86.50
68485;DHT22;55472;50.060;21.960;2023-02-26T18:09:48;-0.20;86.90
68485;DHT22;55472;50.060;21.960;2023-02-26T18:12:20;-0.20;87.30
68485;DHT22;55472;50.060;21.960;2023-02-26T18:14:47;-0.20;86.60
68485;DHT22;55472;50.060;21.960;2023-02-26T18:17:26;-0.20;86.00
68485;DHT22;55472;50.060;21.960;2023-02-26T18:19:56;-0.20;85.20
68485;DHT22;55472;50.060;21.960;2023-02-26T18:22:23;-0.20;85.00
68485;DHT22;55472;50.060;21.960;2023-02-26T18:24:52;-0.20;85.10
68485;DHT22;55472;50.060;21.960;2023-02-26T18:27:22;-0.20;84.90
68485;DHT22;55472;50.060;21.960;2023-02-26T18:29:49;-0.30;84.10
68485;DHT22;55472;50.060;21.960;2023-02-26T18:32:19;-0.20;83.60
68485;DHT22;55472;50.060;21.960;2023-02-26T18:34:47;-0.20;82.70
68485;DHT22;55472;50.060;21.960;2023-02-26T18:37:17;-0.30;82.30
68485;DHT22;55472;50.060;21.960;2023-02-26T18:39:45;-0.30;81.70
68485;DHT22;55472;50.060;21.960;2023-02-26T18:44:48;-0.30;81.60
68485;DHT22;55472;50.060;21.960;2023-02-26T18:47:44;-0.30;81.60
68485;DHT22;55472;50.060;21.960;2023-02-26T18:50:43;-0.30;82.00
68485;DHT22;55472;50.060;21.960;2023-02-26T18:53:14;-0.40;81.90
68485;DHT22;55472;50.060;21.960;2023-02-26T18:55:52;-0.40;81.80
68485;DHT22;55472;50.060;21.960;2023-02-26T19:01:16;-0.40;81.40
68485;DHT22;55472;50.060;21.960;2023-02-26T19:04:25;-0.40;81.40